Kissho — JD3124 — position and weather

sailwx.info

Track history (hours):
 
Tides and Currents Weather Stations Pressure Air Temp Water Temp Dewpoint Dewpoint Depression Visibility Wind Speed Wind Dir Waves Ship Positions

Kissho

Last reported at 2017-Oct-14 23:21 UTC. Time now 2017-Oct-18 07:41 UTC.
Position N 35°25' E 139°47'.

Length 30 m.

Type: Tug. MMSI: 431002115.

Date/timePositionNaut miles runAvg speedWind from/ knotsBaromVisibWave heightAir tempDewpointWater temp
2017-Oct-14 23:21N 35°25' E 139°47'2 6.4
2017-Oct-14 22:59N 35°23' E 139°46'9 5.8
2017-Oct-14 21:25N 35°14' E 139°47'2 5.9
2017-Oct-14 21:00N 35°12' E 139°47'3 6.2
2017-Oct-14 20:30N 35°09' E 139°47'3 5.8
2017-Oct-14 19:59N 35°06' E 139°46'3 6.8
2017-Oct-14 19:29N 35°02' E 139°45'  
2017-Oct-10 07:19N 34°60' E 139°44'3 7.9
2017-Oct-10 06:59N 35°02' E 139°44'4 7.7
2017-Oct-10 06:30N 35°06' E 139°45'4 7.7
2017-Oct-10 06:00N 35°10' E 139°45'4 6.9
2017-Oct-10 05:28N 35°14' E 139°46'4 7.4
2017-Oct-10 04:55N 35°17' E 139°44'3 7.2
2017-Oct-10 04:27N 35°20' E 139°42'4 6.9
2017-Oct-10 03:54N 35°24' E 139°43'3 7.4
2017-Oct-10 03:27N 35°26' E 139°46'7 0.2
2017-Oct-08 23:19N 35°20' E 139°44'6 6.5
2017-Oct-08 22:25N 35°14' E 139°47'3 7.2
2017-Oct-08 21:59N 35°11' E 139°47'4 7.6
2017-Oct-08 21:30N 35°07' E 139°46'3 5.7
2017-Oct-08 21:00N 35°05' E 139°44'4 7.6
2017-Oct-08 20:29N 35°03' E 139°41'4 7.3
2017-Oct-08 19:59N 35°02' E 139°36'  
Track history (hours):
 
Tides and Currents Weather Stations Pressure Air Temp Water Temp Dewpoint Dewpoint Depression Visibility Wind Speed Wind Dir Waves Ship Positions

Kissho

Last reported at 2017-Oct-14 23:21 UTC. Time now 2017-Oct-18 07:41 UTC.
Position N 35°25' E 139°47'.

Length 30 m.

Type: Tug. MMSI: 431002115.

Date/timePositionNaut miles runAvg speedWind from/ knotsBaromVisibWave heightAir tempDewpointWater temp
2017-Oct-14 23:21N 35°25' E 139°47'2 6.4
2017-Oct-14 22:59N 35°23' E 139°46'9 5.8
2017-Oct-14 21:25N 35°14' E 139°47'2 5.9
2017-Oct-14 21:00N 35°12' E 139°47'3 6.2
2017-Oct-14 20:30N 35°09' E 139°47'3 5.8
2017-Oct-14 19:59N 35°06' E 139°46'3 6.8
2017-Oct-14 19:29N 35°02' E 139°45'  
2017-Oct-10 07:19N 34°60' E 139°44'3 7.9
2017-Oct-10 06:59N 35°02' E 139°44'4 7.7
2017-Oct-10 06:30N 35°06' E 139°45'4 7.7
2017-Oct-10 06:00N 35°10' E 139°45'4 6.9
2017-Oct-10 05:28N 35°14' E 139°46'4 7.4
2017-Oct-10 04:55N 35°17' E 139°44'3 7.2
2017-Oct-10 04:27N 35°20' E 139°42'4 6.9
2017-Oct-10 03:54N 35°24' E 139°43'3 7.4
2017-Oct-10 03:27N 35°26' E 139°46'7 0.2
2017-Oct-08 23:19N 35°20' E 139°44'6 6.5
2017-Oct-08 22:25N 35°14' E 139°47'3 7.2
2017-Oct-08 21:59N 35°11' E 139°47'4 7.6
2017-Oct-08 21:30N 35°07' E 139°46'3 5.7
2017-Oct-08 21:00N 35°05' E 139°44'4 7.6
2017-Oct-08 20:29N 35°03' E 139°41'4 7.3
2017-Oct-08 19:59N 35°02' E 139°36'  

Dump ship's entire track history